sensor_id;sensor_type;location;lat;lon;timestamp;temperature;humidity
37408;DHT22;24866;50.248;8.252;2022-12-18T00:02:20;-8.90;99.90
37408;DHT22;24866;50.248;8.252;2022-12-18T00:04:51;-9.00;99.90
37408;DHT22;24866;50.248;8.252;2022-12-18T00:07:22;-9.10;99.90
37408;DHT22;24866;50.248;8.252;2022-12-18T00:09:52;-9.20;99.90
37408;DHT22;24866;50.248;8.252;2022-12-18T00:12:21;-9.30;99.90
37408;DHT22;24866;50.248;8.252;2022-12-18T00:14:51;-9.40;99.90
37408;DHT22;24866;50.248;8.252;2022-12-18T00:17:21;-9.40;99.90
37408;DHT22;24866;50.248;8.252;2022-12-18T00:19:53;-9.30;99.90
37408;DHT22;24866;50.248;8.252;2022-12-18T00:22:23;-9.20;99.90
37408;DHT22;24866;50.248;8.252;2022-12-18T00:24:53;-9.00;99.90
37408;DHT22;24866;50.248;8.252;2022-12-18T00:27:23;-9.20;99.90
37408;DHT22;24866;50.248;8.252;2022-12-18T00:29:53;-9.70;99.90
37408;DHT22;24866;50.248;8.252;2022-12-18T00:32:23;-9.40;99.90
37408;DHT22;24866;50.248;8.252;2022-12-18T00:34:54;-9.40;99.90
37408;DHT22;24866;50.248;8.252;2022-12-18T00:37:24;-9.80;99.90
37408;DHT22;24866;50.248;8.252;2022-12-18T00:39:54;-9.70;99.90
37408;DHT22;24866;50.248;8.252;2022-12-18T00:42:24;-9.70;99.90
37408;DHT22;24866;50.248;8.252;2022-12-18T00:45:11;-9.70;99.90
37408;DHT22;24866;50.248;8.252;2022-12-18T00:47:41;-9.60;99.90
37408;DHT22;24866;50.248;8.252;2022-12-18T00:50:12;-9.40;99.90
37408;DHT22;24866;50.248;8.252;2022-12-18T00:52:42;-9.50;99.90
37408;DHT22;24866;50.248;8.252;2022-12-18T00:55:13;-9.60;99.90
37408;DHT22;24866;50.248;8.252;2022-12-18T00:57:44;-9.50;99.90
37408;DHT22;24866;50.248;8.252;2022-12-18T01:00:15;-9.20;99.90
37408;DHT22;24866;50.248;8.252;2022-12-18T01:02:46;-9.30;99.90
37408;DHT22;24866;50.248;8.252;2022-12-18T01:05:20;-9.30;99.90
37408;DHT22;24866;50.248;8.252;2022-12-18T01:07:51;-9.20;99.90
37408;DHT22;24866;50.248;8.252;2022-12-18T01:10:21;-9.00;99.90
37408;DHT22;24866;50.248;8.252;2022-12-18T01:12:51;-9.00;99.90
37408;DHT22;24866;50.248;8.252;2022-12-18T01:15:21;-8.90;99.90
37408;DHT22;24866;50.248;8.252;2022-12-18T01:17:52;-9.00;99.90
37408;DHT22;24866;50.248;8.252;2022-12-18T01:20:23;-9.00;99.90
37408;DHT22;24866;50.248;8.252;2022-12-18T01:22:53;-9.00;99.90
37408;DHT22;24866;50.248;8.252;2022-12-18T01:25:23;-9.50;99.90
37408;DHT22;24866;50.248;8.252;2022-12-18T01:27:53;-9.40;99.90
37408;DHT22;24866;50.248;8.252;2022-12-18T01:30:23;-9.40;99.90
37408;DHT22;24866;50.248;8.252;2022-12-18T01:32:53;-9.50;99.90
37408;DHT22;24866;50.248;8.252;2022-12-18T01:35:25;-9.40;99.90
37408;DHT22;24866;50.248;8.252;2022-12-18T01:37:54;-9.40;99.90
37408;DHT22;24866;50.248;8.252;2022-12-18T01:40:24;-9.50;99.90
37408;DHT22;24866;50.248;8.252;2022-12-18T01:42:54;-9.70;99.90
37408;DHT22;24866;50.248;8.252;2022-12-18T01:45:26;-9.90;99.90
37408;DHT22;24866;50.248;8.252;2022-12-18T01:47:59;-10.00;99.90
37408;DHT22;24866;50.248;8.252;2022-12-18T01:50:34;-9.80;99.90
37408;DHT22;24866;50.248;8.252;2022-12-18T01:53:07;-9.80;99.90
37408;DHT22;24866;50.248;8.252;2022-12-18T01:55:42;-9.70;99.90
37408;DHT22;24866;50.248;8.252;2022-12-18T01:58:12;-9.70;99.90
37408;DHT22;24866;50.248;8.252;2022-12-18T02:00:43;-9.70;99.90
37408;DHT22;24866;50.248;8.252;2022-12-18T02:03:13;-9.50;99.90
37408;DHT22;24866;50.248;8.252;2022-12-18T02:05:47;-9.60;99.90
37408;DHT22;24866;50.248;8.252;2022-12-18T02:08:21;-9.80;99.90
37408;DHT22;24866;50.248;8.252;2022-12-18T02:10:58;-10.00;99.90
37408;DHT22;24866;50.248;8.252;2022-12-18T02:13:35;-10.30;99.90
37408;DHT22;24866;50.248;8.252;2022-12-18T02:16:10;-10.30;99.90
37408;DHT22;24866;50.248;8.252;2022-12-18T02:18:45;-10.20;99.90
37408;DHT22;24866;50.248;8.252;2022-12-18T02:21:27;-10.30;99.90
37408;DHT22;24866;50.248;8.252;2022-12-18T02:24:12;-10.20;99.90
37408;DHT22;24866;50.248;8.252;2022-12-18T02:26:47;-10.10;99.90
37408;DHT22;24866;50.248;8.252;2022-12-18T02:29:21;-10.00;99.90
37408;DHT22;24866;50.248;8.252;2022-12-18T02:31:54;-9.70;99.90
37408;DHT22;24866;50.248;8.252;2022-12-18T02:34:29;-9.80;99.90
37408;DHT22;24866;50.248;8.252;2022-12-18T02:37:03;-9.70;99.90
37408;DHT22;24866;50.248;8.252;2022-12-18T02:39:38;-9.60;99.90
37408;DHT22;24866;50.248;8.252;2022-12-18T02:42:10;-9.90;99.90
37408;DHT22;24866;50.248;8.252;2022-12-18T02:44:46;-9.90;99.90
37408;DHT22;24866;50.248;8.252;2022-12-18T02:47:18;-10.10;99.90
37408;DHT22;24866;50.248;8.252;2022-12-18T02:49:55;-10.30;99.90
37408;DHT22;24866;50.248;8.252;2022-12-18T02:52:31;-10.60;99.90
37408;DHT22;24866;50.248;8.252;2022-12-18T02:55:13;-10.60;99.90
37408;DHT22;24866;50.248;8.252;2022-12-18T02:57:50;-10.70;99.90
37408;DHT22;24866;50.248;8.252;2022-12-18T03:00:24;-10.70;99.90
37408;DHT22;24866;50.248;8.252;2022-12-18T03:03:04;-10.60;99.90
37408;DHT22;24866;50.248;8.252;2022-12-18T03:05:39;-10.40;99.90
37408;DHT22;24866;50.248;8.252;2022-12-18T03:08:14;-10.60;99.90
37408;DHT22;24866;50.248;8.252;2022-12-18T03:10:49;-10.90;99.90
37408;DHT22;24866;50.248;8.252;2022-12-18T03:13:25;-11.00;99.90
37408;DHT22;24866;50.248;8.252;2022-12-18T03:16:00;-10.90;99.90
37408;DHT22;24866;50.248;8.252;2022-12-18T03:18:36;-10.50;99.90
37408;DHT22;24866;50.248;8.252;2022-12-18T03:21:09;-10.40;99.90
37408;DHT22;24866;50.248;8.252;2022-12-18T03:23:44;-10.30;99.90
37408;DHT22;24866;50.248;8.252;2022-12-18T03:26:16;-10.40;99.90
37408;DHT22;24866;50.248;8.252;2022-12-18T03:28:51;-10.20;99.90
37408;DHT22;24866;50.248;8.252;2022-12-18T03:31:23;-10.40;99.90
37408;DHT22;24866;50.248;8.252;2022-12-18T03:33:58;-10.50;99.90
37408;DHT22;24866;50.248;8.252;2022-12-18T03:36:29;-10.40;99.90
37408;DHT22;24866;50.248;8.252;2022-12-18T03:38:59;-10.50;99.90
37408;DHT22;24866;50.248;8.252;2022-12-18T03:41:32;-10.50;99.90
37408;DHT22;24866;50.248;8.252;2022-12-18T03:44:11;-10.30;99.90
37408;DHT22;24866;50.248;8.252;2022-12-18T03:46:46;-10.50;99.90
37408;DHT22;24866;50.248;8.252;2022-12-18T03:49:24;-10.30;99.90
37408;DHT22;24866;50.248;8.252;2022-12-18T03:52:01;-10.50;99.90
37408;DHT22;24866;50.248;8.252;2022-12-18T03:54:31;-10.40;99.90
37408;DHT22;24866;50.248;8.252;2022-12-18T03:57:06;-10.30;99.90
37408;DHT22;24866;50.248;8.252;2022-12-18T03:59:39;-10.30;99.90
37408;DHT22;24866;50.248;8.252;2022-12-18T04:02:09;-10.20;99.90
37408;DHT22;24866;50.248;8.252;2022-12-18T04:04:40;-10.20;99.90
37408;DHT22;24866;50.248;8.252;2022-12-18T04:07:12;-10.40;99.90
37408;DHT22;24866;50.248;8.252;2022-12-18T04:09:43;-10.30;99.90
37408;DHT22;24866;50.248;8.252;2022-12-18T04:12:14;-10.60;99.90
37408;DHT22;24866;50.248;8.252;2022-12-18T04:14:45;-10.40;99.90
37408;DHT22;24866;50.248;8.252;2022-12-18T04:17:15;-10.40;99.90
37408;DHT22;24866;50.248;8.252;2022-12-18T04:19:45;-10.60;99.90
37408;DHT22;24866;50.248;8.252;2022-12-18T04:22:15;-10.40;99.90
37408;DHT22;24866;50.248;8.252;2022-12-18T04:24:44;-10.50;99.90
37408;DHT22;24866;50.248;8.252;2022-12-18T04:27:14;-10.40;99.90
37408;DHT22;24866;50.248;8.252;2022-12-18T04:29:45;-10.40;99.90
37408;DHT22;24866;50.248;8.252;2022-12-18T04:32:15;-10.40;99.90
37408;DHT22;24866;50.248;8.252;2022-12-18T04:34:45;-10.40;99.90
37408;DHT22;24866;50.248;8.252;2022-12-18T04:37:15;-10.40;99.90
37408;DHT22;24866;50.248;8.252;2022-12-18T04:39:45;-10.70;99.90
37408;DHT22;24866;50.248;8.252;2022-12-18T04:42:15;-10.80;99.90
37408;DHT22;24866;50.248;8.252;2022-12-18T04:44:46;-10.60;99.90
37408;DHT22;24866;50.248;8.252;2022-12-18T04:47:16;-10.70;99.90
37408;DHT22;24866;50.248;8.252;2022-12-18T04:49:46;-10.80;99.90
37408;DHT22;24866;50.248;8.252;2022-12-18T04:52:16;-10.80;99.90
37408;DHT22;24866;50.248;8.252;2022-12-18T04:54:46;-10.80;99.90
37408;DHT22;24866;50.248;8.252;2022-12-18T04:57:16;-10.90;99.90
37408;DHT22;24866;50.248;8.252;2022-12-18T04:59:47;-11.00;99.90
37408;DHT22;24866;50.248;8.252;2022-12-18T05:02:18;-10.90;99.90
37408;DHT22;24866;50.248;8.252;2022-12-18T05:04:47;-11.10;99.90
37408;DHT22;24866;50.248;8.252;2022-12-18T05:07:17;-10.90;99.90
37408;DHT22;24866;50.248;8.252;2022-12-18T05:09:47;-10.80;99.90
37408;DHT22;24866;50.248;8.252;2022-12-18T05:12:17;-10.70;99.90
37408;DHT22;24866;50.248;8.252;2022-12-18T05:14:48;-10.70;99.90
37408;DHT22;24866;50.248;8.252;2022-12-18T05:17:18;-10.70;99.90
37408;DHT22;24866;50.248;8.252;2022-12-18T05:19:48;-10.80;99.90
37408;DHT22;24866;50.248;8.252;2022-12-18T05:22:18;-10.80;99.90
37408;DHT22;24866;50.248;8.252;2022-12-18T05:24:48;-11.00;99.90
37408;DHT22;24866;50.248;8.252;2022-12-18T05:27:17;-11.00;99.90
37408;DHT22;24866;50.248;8.252;2022-12-18T05:29:50;-11.00;99.90
37408;DHT22;24866;50.248;8.252;2022-12-18T05:32:20;-11.00;99.90
37408;DHT22;24866;50.248;8.252;2022-12-18T05:34:50;-11.00;99.90
37408;DHT22;24866;50.248;8.252;2022-12-18T05:37:20;-10.90;99.90
37408;DHT22;24866;50.248;8.252;2022-12-18T05:39:49;-10.90;99.90
37408;DHT22;24866;50.248;8.252;2022-12-18T05:42:19;-11.10;99.90
37408;DHT22;24866;50.248;8.252;2022-12-18T05:44:51;-11.00;99.90
37408;DHT22;24866;50.248;8.252;2022-12-18T05:47:20;-10.90;99.90
37408;DHT22;24866;50.248;8.252;2022-12-18T05:49:50;-10.90;99.90
37408;DHT22;24866;50.248;8.252;2022-12-18T05:52:20;-10.90;99.90
37408;DHT22;24866;50.248;8.252;2022-12-18T05:54:50;-10.90;99.90
37408;DHT22;24866;50.248;8.252;2022-12-18T05:57:20;-10.90;99.90
37408;DHT22;24866;50.248;8.252;2022-12-18T05:59:51;-10.80;99.90
37408;DHT22;24866;50.248;8.252;2022-12-18T06:02:21;-10.90;99.90
37408;DHT22;24866;50.248;8.252;2022-12-18T06:04:51;-10.90;99.90
37408;DHT22;24866;50.248;8.252;2022-12-18T06:07:21;-10.80;99.90
37408;DHT22;24866;50.248;8.252;2022-12-18T06:09:51;-11.10;99.90
37408;DHT22;24866;50.248;8.252;2022-12-18T06:12:21;-11.20;99.90
37408;DHT22;24866;50.248;8.252;2022-12-18T06:14:52;-11.10;99.90
37408;DHT22;24866;50.248;8.252;2022-12-18T06:17:22;-11.10;99.90
37408;DHT22;24866;50.248;8.252;2022-12-18T06:19:51;-11.20;99.90
37408;DHT22;24866;50.248;8.252;2022-12-18T06:22:22;-10.90;99.90
37408;DHT22;24866;50.248;8.252;2022-12-18T06:24:52;-11.10;99.90
37408;DHT22;24866;50.248;8.252;2022-12-18T06:27:22;-11.00;99.90
37408;DHT22;24866;50.248;8.252;2022-12-18T06:29:53;-11.00;99.90
37408;DHT22;24866;50.248;8.252;2022-12-18T06:32:23;-11.00;99.90
37408;DHT22;24866;50.248;8.252;2022-12-18T06:34:53;-11.00;99.90
37408;DHT22;24866;50.248;8.252;2022-12-18T06:37:23;-11.10;99.90
37408;DHT22;24866;50.248;8.252;2022-12-18T06:39:54;-11.20;99.90
37408;DHT22;24866;50.248;8.252;2022-12-18T06:42:25;-11.20;99.90
37408;DHT22;24866;50.248;8.252;2022-12-18T06:44:56;-11.40;99.90
37408;DHT22;24866;50.248;8.252;2022-12-18T06:47:26;-11.20;99.90
37408;DHT22;24866;50.248;8.252;2022-12-18T06:49:56;-11.00;99.90
37408;DHT22;24866;50.248;8.252;2022-12-18T06:52:26;-10.90;99.90
37408;DHT22;24866;50.248;8.252;2022-12-18T06:54:56;-10.80;99.90
37408;DHT22;24866;50.248;8.252;2022-12-18T06:57:25;-11.00;99.90
37408;DHT22;24866;50.248;8.252;2022-12-18T06:59:57;-11.00;99.90
37408;DHT22;24866;50.248;8.252;2022-12-18T07:02:27;-11.10;99.90
37408;DHT22;24866;50.248;8.252;2022-12-18T07:04:57;-11.20;99.90
37408;DHT22;24866;50.248;8.252;2022-12-18T07:07:27;-11.10;99.90
37408;DHT22;24866;50.248;8.252;2022-12-18T07:09:57;-11.30;99.90
37408;DHT22;24866;50.248;8.252;2022-12-18T07:12:27;-11.40;99.90
37408;DHT22;24866;50.248;8.252;2022-12-18T07:14:58;-11.40;99.90
37408;DHT22;24866;50.248;8.252;2022-12-18T07:17:28;-11.50;99.90
37408;DHT22;24866;50.248;8.252;2022-12-18T07:19:58;-11.50;99.90
37408;DHT22;24866;50.248;8.252;2022-12-18T07:22:28;-11.50;99.90
37408;DHT22;24866;50.248;8.252;2022-12-18T07:24:58;-11.40;99.90
37408;DHT22;24866;50.248;8.252;2022-12-18T07:27:28;-11.40;99.90
37408;DHT22;24866;50.248;8.252;2022-12-18T07:29:59;-11.30;99.90
37408;DHT22;24866;50.248;8.252;2022-12-18T07:32:30;-11.30;99.90
37408;DHT22;24866;50.248;8.252;2022-12-18T07:35:00;-11.40;99.90
37408;DHT22;24866;50.248;8.252;2022-12-18T07:37:30;-11.30;99.90
37408;DHT22;24866;50.248;8.252;2022-12-18T07:40:00;-11.30;99.90
37408;DHT22;24866;50.248;8.252;2022-12-18T07:42:30;-11.60;99.90
37408;DHT22;24866;50.248;8.252;2022-12-18T07:45:02;-11.70;99.90
37408;DHT22;24866;50.248;8.252;2022-12-18T07:47:34;-11.40;99.90
37408;DHT22;24866;50.248;8.252;2022-12-18T07:50:05;-11.20;99.90
37408;DHT22;24866;50.248;8.252;2022-12-18T07:52:36;-11.10;99.90
37408;DHT22;24866;50.248;8.252;2022-12-18T07:55:06;-11.00;99.90
37408;DHT22;24866;50.248;8.252;2022-12-18T07:57:36;-11.20;99.90
37408;DHT22;24866;50.248;8.252;2022-12-18T08:00:08;-11.50;99.90
37408;DHT22;24866;50.248;8.252;2022-12-18T08:02:39;-11.30;99.90
37408;DHT22;24866;50.248;8.252;2022-12-18T08:05:09;-11.20;99.90
37408;DHT22;24866;50.248;8.252;2022-12-18T08:07:39;-11.20;99.90
37408;DHT22;24866;50.248;8.252;2022-12-18T08:10:09;-10.90;99.90
37408;DHT22;24866;50.248;8.252;2022-12-18T08:12:39;-10.60;99.90
37408;DHT22;24866;50.248;8.252;2022-12-18T08:15:11;-10.40;99.90
37408;DHT22;24866;50.248;8.252;2022-12-18T08:17:40;-10.30;99.90
37408;DHT22;24866;50.248;8.252;2022-12-18T08:20:11;-9.90;99.90
37408;DHT22;24866;50.248;8.252;2022-12-18T08:22:42;-9.70;99.90
37408;DHT22;24866;50.248;8.252;2022-12-18T08:25:12;-9.50;99.90
37408;DHT22;24866;50.248;8.252;2022-12-18T08:27:42;-9.60;99.90
37408;DHT22;24866;50.248;8.252;2022-12-18T08:30:14;-9.50;99.90
37408;DHT22;24866;50.248;8.252;2022-12-18T08:32:44;-9.70;99.90
37408;DHT22;24866;50.248;8.252;2022-12-18T08:35:14;-9.40;99.90
37408;DHT22;24866;50.248;8.252;2022-12-18T08:37:44;-9.20;99.90
37408;DHT22;24866;50.248;8.252;2022-12-18T08:40:14;-9.00;99.90
37408;DHT22;24866;50.248;8.252;2022-12-18T08:42:44;-9.00;99.90
37408;DHT22;24866;50.248;8.252;2022-12-18T08:45:33;-9.20;99.90
37408;DHT22;24866;50.248;8.252;2022-12-18T08:48:04;-9.60;99.90
37408;DHT22;24866;50.248;8.252;2022-12-18T08:50:34;-9.50;99.90
37408;DHT22;24866;50.248;8.252;2022-12-18T08:53:04;-9.10;99.90
37408;DHT22;24866;50.248;8.252;2022-12-18T08:55:34;-9.00;99.90
37408;DHT22;24866;50.248;8.252;2022-12-18T08:58:05;-9.10;99.90
37408;DHT22;24866;50.248;8.252;2022-12-18T09:00:37;-9.00;99.90
37408;DHT22;24866;50.248;8.252;2022-12-18T09:03:10;-8.50;99.90
37408;DHT22;24866;50.248;8.252;2022-12-18T09:05:41;-8.30;99.90
37408;DHT22;24866;50.248;8.252;2022-12-18T09:08:12;-8.20;99.90
37408;DHT22;24866;50.248;8.252;2022-12-18T09:10:45;-8.30;99.90
37408;DHT22;24866;50.248;8.252;2022-12-18T09:13:16;-8.40;99.90
37408;DHT22;24866;50.248;8.252;2022-12-18T09:15:50;-8.10;99.90
37408;DHT22;24866;50.248;8.252;2022-12-18T09:18:22;-8.10;99.90
37408;DHT22;24866;50.248;8.252;2022-12-18T09:20:52;-8.10;99.90
37408;DHT22;24866;50.248;8.252;2022-12-18T09:23:22;-8.00;99.90
37408;DHT22;24866;50.248;8.252;2022-12-18T09:25:58;-7.80;99.90
37408;DHT22;24866;50.248;8.252;2022-12-18T09:28:28;-7.40;99.90
37408;DHT22;24866;50.248;8.252;2022-12-18T09:31:04;-7.10;99.90
37408;DHT22;24866;50.248;8.252;2022-12-18T09:33:35;-6.50;99.90
37408;DHT22;24866;50.248;8.252;2022-12-18T09:36:07;-6.00;99.90
37408;DHT22;24866;50.248;8.252;2022-12-18T09:38:37;-5.80;99.90
37408;DHT22;24866;50.248;8.252;2022-12-18T09:41:20;-5.30;99.90
37408;DHT22;24866;50.248;8.252;2022-12-18T09:43:56;-4.90;99.90
37408;DHT22;24866;50.248;8.252;2022-12-18T09:46:32;-4.70;99.90
37408;DHT22;24866;50.248;8.252;2022-12-18T09:49:06;-4.40;99.90
37408;DHT22;24866;50.248;8.252;2022-12-18T09:51:40;-4.30;99.90
37408;DHT22;24866;50.248;8.252;2022-12-18T09:54:18;-4.20;99.90
37408;DHT22;24866;50.248;8.252;2022-12-18T09:56:50;-4.30;99.90
37408;DHT22;24866;50.248;8.252;2022-12-18T09:59:25;-4.20;99.90
37408;DHT22;24866;50.248;8.252;2022-12-18T10:01:58;-4.20;99.90
37408;DHT22;24866;50.248;8.252;2022-12-18T10:04:31;-4.20;99.90
37408;DHT22;24866;50.248;8.252;2022-12-18T10:07:07;-4.10;99.90
37408;DHT22;24866;50.248;8.252;2022-12-18T10:09:45;-4.10;99.90
37408;DHT22;24866;50.248;8.252;2022-12-18T10:12:23;-3.90;99.90
37408;DHT22;24866;50.248;8.252;2022-12-18T10:15:02;-3.80;99.90
37408;DHT22;24866;50.248;8.252;2022-12-18T10:17:43;-3.70;99.90
37408;DHT22;24866;50.248;8.252;2022-12-18T10:20:19;-3.70;99.90
37408;DHT22;24866;50.248;8.252;2022-12-18T10:22:55;-3.80;99.90
37408;DHT22;24866;50.248;8.252;2022-12-18T10:25:33;-3.90;99.90
37408;DHT22;24866;50.248;8.252;2022-12-18T10:28:10;-4.00;99.90
37408;DHT22;24866;50.248;8.252;2022-12-18T10:30:43;-4.00;99.90
37408;DHT22;24866;50.248;8.252;2022-12-18T10:33:18;-4.10;99.90
37408;DHT22;24866;50.248;8.252;2022-12-18T10:35:50;-4.10;99.90
37408;DHT22;24866;50.248;8.252;2022-12-18T10:38:24;-4.20;99.90
37408;DHT22;24866;50.248;8.252;2022-12-18T10:40:56;-4.30;99.90
37408;DHT22;24866;50.248;8.252;2022-12-18T10:43:28;-4.30;99.90
37408;DHT22;24866;50.248;8.252;2022-12-18T10:46:01;-4.20;99.90
37408;DHT22;24866;50.248;8.252;2022-12-18T10:48:35;-4.30;99.90
37408;DHT22;24866;50.248;8.252;2022-12-18T10:51:05;-4.30;99.90
37408;DHT22;24866;50.248;8.252;2022-12-18T10:53:37;-4.40;99.90
37408;DHT22;24866;50.248;8.252;2022-12-18T10:56:07;-4.40;99.90
37408;DHT22;24866;50.248;8.252;2022-12-18T10:58:38;-4.40;99.90
37408;DHT22;24866;50.248;8.252;2022-12-18T11:01:10;-4.30;99.90
37408;DHT22;24866;50.248;8.252;2022-12-18T11:03:44;-4.20;99.90
37408;DHT22;24866;50.248;8.252;2022-12-18T11:06:16;-4.10;99.90
37408;DHT22;24866;50.248;8.252;2022-12-18T11:08:58;-4.00;99.90
37408;DHT22;24866;50.248;8.252;2022-12-18T11:11:29;-3.90;99.90
37408;DHT22;24866;50.248;8.252;2022-12-18T11:14:03;-3.80;99.90
37408;DHT22;24866;50.248;8.252;2022-12-18T11:16:35;-3.90;99.90
37408;DHT22;24866;50.248;8.252;2022-12-18T11:19:12;-3.90;99.90
37408;DHT22;24866;50.248;8.252;2022-12-18T11:21:43;-3.80;99.90
37408;DHT22;24866;50.248;8.252;2022-12-18T11:24:20;-3.90;99.90
37408;DHT22;24866;50.248;8.252;2022-12-18T11:26:52;-4.00;99.90
37408;DHT22;24866;50.248;8.252;2022-12-18T11:29:27;-3.90;99.90
37408;DHT22;24866;50.248;8.252;2022-12-18T11:32:26;-4.00;99.90
37408;DHT22;24866;50.248;8.252;2022-12-18T11:35:11;-4.00;99.90
37408;DHT22;24866;50.248;8.252;2022-12-18T11:37:46;-4.00;99.90
37408;DHT22;24866;50.248;8.252;2022-12-18T11:40:20;-4.00;99.90
37408;DHT22;24866;50.248;8.252;2022-12-18T11:42:54;-4.00;99.90
37408;DHT22;24866;50.248;8.252;2022-12-18T11:45:28;-4.10;99.90
37408;DHT22;24866;50.248;8.252;2022-12-18T11:48:03;-4.20;99.90
37408;DHT22;24866;50.248;8.252;2022-12-18T11:50:46;-4.20;99.90
37408;DHT22;24866;50.248;8.252;2022-12-18T11:53:19;-4.00;99.90
37408;DHT22;24866;50.248;8.252;2022-12-18T11:56:01;-4.20;99.90
37408;DHT22;24866;50.248;8.252;2022-12-18T11:58:45;-4.30;99.90
37408;DHT22;24866;50.248;8.252;2022-12-18T12:01:24;-4.40;99.90
37408;DHT22;24866;50.248;8.252;2022-12-18T12:04:27;-4.50;99.90
37408;DHT22;24866;50.248;8.252;2022-12-18T12:07:12;-4.40;99.90
37408;DHT22;24866;50.248;8.252;2022-12-18T12:09:50;-4.20;99.90
37408;DHT22;24866;50.248;8.252;2022-12-18T12:12:34;-4.50;99.90
37408;DHT22;24866;50.248;8.252;2022-12-18T12:15:22;-4.50;99.90
37408;DHT22;24866;50.248;8.252;2022-12-18T12:18:01;-4.50;99.90
37408;DHT22;24866;50.248;8.252;2022-12-18T12:20:45;-4.50;99.90
37408;DHT22;24866;50.248;8.252;2022-12-18T12:23:26;-4.40;99.90
37408;DHT22;24866;50.248;8.252;2022-12-18T12:26:04;-4.50;99.90
37408;DHT22;24866;50.248;8.252;2022-12-18T12:28:59;-4.40;99.90
37408;DHT22;24866;50.248;8.252;2022-12-18T12:31:47;-4.40;99.90
37408;DHT22;24866;50.248;8.252;2022-12-18T12:34:23;-4.70;99.90
37408;DHT22;24866;50.248;8.252;2022-12-18T12:37:07;-4.80;99.90
37408;DHT22;24866;50.248;8.252;2022-12-18T12:39:42;-4.70;99.90
37408;DHT22;24866;50.248;8.252;2022-12-18T12:42:26;-4.70;99.90
37408;DHT22;24866;50.248;8.252;2022-12-18T12:45:20;-4.70;99.90
37408;DHT22;24866;50.248;8.252;2022-12-18T12:47:53;-4.90;99.90
37408;DHT22;24866;50.248;8.252;2022-12-18T12:50:25;-4.90;99.90
37408;DHT22;24866;50.248;8.252;2022-12-18T12:52:57;-5.00;99.90
37408;DHT22;24866;50.248;8.252;2022-12-18T12:55:29;-5.10;99.90
37408;DHT22;24866;50.248;8.252;2022-12-18T12:58:06;-5.20;99.90
37408;DHT22;24866;50.248;8.252;2022-12-18T13:00:46;-5.30;99.90
37408;DHT22;24866;50.248;8.252;2022-12-18T13:03:30;-5.30;99.90
37408;DHT22;24866;50.248;8.252;2022-12-18T13:06:09;-5.30;99.90
37408;DHT22;24866;50.248;8.252;2022-12-18T13:08:54;-5.40;99.90
37408;DHT22;24866;50.248;8.252;2022-12-18T13:11:36;-5.40;99.90
37408;DHT22;24866;50.248;8.252;2022-12-18T13:14:27;-5.30;99.90
37408;DHT22;24866;50.248;8.252;2022-12-18T13:20:10;-5.50;99.90
37408;DHT22;24866;50.248;8.252;2022-12-18T13:22:43;-5.40;99.90
37408;DHT22;24866;50.248;8.252;2022-12-18T13:25:35;-5.40;99.90
37408;DHT22;24866;50.248;8.252;2022-12-18T13:28:09;-5.40;99.90
37408;DHT22;24866;50.248;8.252;2022-12-18T13:30:52;-5.40;99.90
37408;DHT22;24866;50.248;8.252;2022-12-18T13:33:40;-5.30;99.90
37408;DHT22;24866;50.248;8.252;2022-12-18T13:45:40;-5.40;99.90
37408;DHT22;24866;50.248;8.252;2022-12-18T13:48:26;-5.50;99.90
37408;DHT22;24866;50.248;8.252;2022-12-18T13:51:01;-5.50;99.90
37408;DHT22;24866;50.248;8.252;2022-12-18T13:53:36;-5.60;99.90
37408;DHT22;24866;50.248;8.252;2022-12-18T13:56:07;-5.60;99.90
37408;DHT22;24866;50.248;8.252;2022-12-18T13:58:38;-5.60;99.90
37408;DHT22;24866;50.248;8.252;2022-12-18T14:01:22;-5.70;99.90
37408;DHT22;24866;50.248;8.252;2022-12-18T14:04:10;-5.80;99.90
37408;DHT22;24866;50.248;8.252;2022-12-18T14:06:45;-5.70;99.90
37408;DHT22;24866;50.248;8.252;2022-12-18T14:09:16;-5.70;99.90
37408;DHT22;24866;50.248;8.252;2022-12-18T14:11:47;-5.80;99.90
37408;DHT22;24866;50.248;8.252;2022-12-18T14:14:18;-5.80;99.90
37408;DHT22;24866;50.248;8.252;2022-12-18T14:16:50;-5.80;99.90
37408;DHT22;24866;50.248;8.252;2022-12-18T14:19:21;-5.80;99.90
37408;DHT22;24866;50.248;8.252;2022-12-18T14:21:52;-5.80;99.90
37408;DHT22;24866;50.248;8.252;2022-12-18T14:24:22;-5.80;99.90
37408;DHT22;24866;50.248;8.252;2022-12-18T14:26:52;-5.70;99.90
37408;DHT22;24866;50.248;8.252;2022-12-18T14:29:24;-5.80;99.90
37408;DHT22;24866;50.248;8.252;2022-12-18T14:32:15;-5.80;99.90
37408;DHT22;24866;50.248;8.252;2022-12-18T14:34:47;-5.70;99.90
37408;DHT22;24866;50.248;8.252;2022-12-18T14:37:21;-5.70;99.90
37408;DHT22;24866;50.248;8.252;2022-12-18T14:39:59;-5.70;99.90
37408;DHT22;24866;50.248;8.252;2022-12-18T14:42:37;-5.70;99.90
37408;DHT22;24866;50.248;8.252;2022-12-18T14:45:35;-5.60;99.90
37408;DHT22;24866;50.248;8.252;2022-12-18T14:48:11;-5.70;99.90
37408;DHT22;24866;50.248;8.252;2022-12-18T14:50:43;-5.60;99.90
37408;DHT22;24866;50.248;8.252;2022-12-18T14:53:20;-5.70;99.90
37408;DHT22;24866;50.248;8.252;2022-12-18T14:55:51;-5.60;99.90
37408;DHT22;24866;50.248;8.252;2022-12-18T14:58:22;-5.60;99.90
37408;DHT22;24866;50.248;8.252;2022-12-18T15:00:52;-5.60;99.90
37408;DHT22;24866;50.248;8.252;2022-12-18T15:03:23;-5.60;99.90
37408;DHT22;24866;50.248;8.252;2022-12-18T15:05:54;-5.60;99.90
37408;DHT22;24866;50.248;8.252;2022-12-18T15:08:29;-5.60;99.90
37408;DHT22;24866;50.248;8.252;2022-12-18T15:11:28;-5.60;99.90
37408;DHT22;24866;50.248;8.252;2022-12-18T15:13:58;-5.60;99.90
37408;DHT22;24866;50.248;8.252;2022-12-18T15:16:29;-5.50;99.90
37408;DHT22;24866;50.248;8.252;2022-12-18T15:19:01;-5.60;99.90
37408;DHT22;24866;50.248;8.252;2022-12-18T15:21:31;-5.50;99.90
37408;DHT22;24866;50.248;8.252;2022-12-18T15:24:01;-5.50;99.90
37408;DHT22;24866;50.248;8.252;2022-12-18T15:26:37;-5.40;99.90
37408;DHT22;24866;50.248;8.252;2022-12-18T15:29:18;-5.40;99.90
37408;DHT22;24866;50.248;8.252;2022-12-18T15:32:02;-5.30;99.90
37408;DHT22;24866;50.248;8.252;2022-12-18T15:34:35;-5.30;99.90
37408;DHT22;24866;50.248;8.252;2022-12-18T15:37:06;-5.30;99.90
37408;DHT22;24866;50.248;8.252;2022-12-18T15:39:37;-5.30;99.90
37408;DHT22;24866;50.248;8.252;2022-12-18T15:42:08;-5.20;99.90
37408;DHT22;24866;50.248;8.252;2022-12-18T15:45:05;-5.20;99.90
37408;DHT22;24866;50.248;8.252;2022-12-18T15:47:36;-5.20;99.90
37408;DHT22;24866;50.248;8.252;2022-12-18T15:50:08;-5.20;99.90
37408;DHT22;24866;50.248;8.252;2022-12-18T15:52:40;-5.20;99.90
37408;DHT22;24866;50.248;8.252;2022-12-18T15:55:13;-5.20;99.90
37408;DHT22;24866;50.248;8.252;2022-12-18T15:58:01;-5.20;99.90
37408;DHT22;24866;50.248;8.252;2022-12-18T16:00:32;-5.10;99.90
37408;DHT22;24866;50.248;8.252;2022-12-18T16:03:03;-5.10;99.90
37408;DHT22;24866;50.248;8.252;2022-12-18T16:05:36;-5.10;99.90
37408;DHT22;24866;50.248;8.252;2022-12-18T16:08:06;-5.10;99.90
37408;DHT22;24866;50.248;8.252;2022-12-18T16:10:36;-5.20;99.90
37408;DHT22;24866;50.248;8.252;2022-12-18T16:13:09;-5.20;99.90
37408;DHT22;24866;50.248;8.252;2022-12-18T16:15:39;-5.20;99.90
37408;DHT22;24866;50.248;8.252;2022-12-18T16:18:10;-5.20;99.90